Time;durP1;ratioP1;P1;durP2;ratioP2;P2;SDS_P1;SDS_P2;PMS_P1;PMS_P2;Temp;Humidity;BMP_temperature;BMP_pressure;BME280_temperature;BME280_humidity;BME280_pressure;Samples;Min_cycle;Max_cycle;Signal;HPM_P1;HPM_P2
2022/03/13 00:02:24;;;;;;;1.58;0.80;;;9.90;99.90;;;;;;4982691;28;20041;-62
2022/03/13 00:04:51;;;;;;;0.82;0.82;;;9.80;99.90;;;;;;4988676;28;20049;-62
2022/03/13 00:07:25;;;;;;;0.85;0.77;;;9.90;99.90;;;;;;5003378;28;20030;-63
2022/03/13 00:09:51;;;;;;;1.45;0.93;;;9.80;99.90;;;;;;4994043;28;20030;-63
2022/03/13 00:12:36;;;;;;;1.77;0.90;;;9.90;99.90;;;;;;4994215;28;20475;-63
2022/03/13 00:15:10;;;;;;;1.33;0.82;;;9.80;99.90;;;;;;4994113;28;20037;-63
2022/03/13 00:17:36;;;;;;;1.05;0.90;;;9.80;99.90;;;;;;4992455;28;20034;-63
2022/03/13 00:20:05;;;;;;;0.70;0.70;;;9.80;99.90;;;;;;4990399;28;20042;-62
2022/03/13 00:22:33;;;;;;;1.00;0.88;;;9.80;99.90;;;;;;4996461;28;20018;-62
2022/03/13 00:25:08;;;;;;;2.05;0.90;;;9.80;99.90;;;;;;4999741;28;20273;-62
2022/03/13 00:27:34;;;;;;;1.05;0.90;;;9.80;99.90;;;;;;4997805;28;20442;-63
2022/03/13 00:30:02;;;;;;;1.25;0.95;;;9.70;99.90;;;;;;4997674;28;20495;-62
2022/03/13 00:32:28;;;;;;;1.10;0.90;;;9.80;99.90;;;;;;4996948;28;20032;-62
2022/03/13 00:34:54;;;;;;;1.23;0.88;;;9.80;99.90;;;;;;4992325;28;20109;-63
2022/03/13 00:37:19;;;;;;;1.15;1.00;;;9.80;99.90;;;;;;4999073;28;20026;-63
2022/03/13 00:39:49;;;;;;;1.10;0.90;;;9.70;99.90;;;;;;4997013;28;20038;-62
2022/03/13 00:42:15;;;;;;;1.60;0.80;;;9.70;99.90;;;;;;4997250;28;20042;-62
2022/03/13 00:44:41;;;;;;;2.38;0.95;;;9.70;99.90;;;;;;4997149;28;20030;-63
2022/03/13 00:47:07;;;;;;;1.35;0.95;;;9.70;99.90;;;;;;4993733;28;20038;-63
2022/03/13 00:49:33;;;;;;;2.22;0.90;;;9.70;99.90;;;;;;4995390;28;20026;-62
2022/03/13 00:52:02;;;;;;;2.42;0.90;;;9.70;99.90;;;;;;4998763;28;20395;-63
2022/03/13 00:54:28;;;;;;;1.10;1.00;;;9.70;99.90;;;;;;4997014;28;20049;-63
2022/03/13 00:56:54;;;;;;;1.20;0.90;;;9.80;99.90;;;;;;4995632;28;20476;-63
2022/03/13 00:59:20;;;;;;;1.85;0.90;;;9.80;99.90;;;;;;4996357;28;20042;-62
2022/03/13 01:01:46;;;;;;;1.55;0.98;;;9.80;99.90;;;;;;4991797;28;20108;-62
2022/03/13 01:04:12;;;;;;;1.83;0.90;;;9.70;99.90;;;;;;4997616;28;20054;-62
2022/03/13 01:06:38;;;;;;;2.90;1.00;;;9.80;99.90;;;;;;4996702;28;20109;-62
2022/03/13 01:09:04;;;;;;;0.88;0.80;;;9.80;99.90;;;;;;4996781;28;20177;-63
2022/03/13 01:11:30;;;;;;;2.45;1.15;;;9.70;99.90;;;;;;4996742;28;20026;-63
2022/03/13 01:13:56;;;;;;;1.65;1.08;;;9.70;99.90;;;;;;4991410;28;20475;-62
2022/03/13 01:16:38;;;;;;;1.80;1.05;;;9.70;99.90;;;;;;4997865;28;20029;-62
2022/03/13 01:19:04;;;;;;;2.10;1.08;;;9.70;99.90;;;;;;4996646;28;20045;-63
2022/03/13 01:21:32;;;;;;;1.75;1.00;;;9.70;99.90;;;;;;4996502;28;20027;-62
2022/03/13 01:24:01;;;;;;;1.45;1.00;;;9.80;99.90;;;;;;4995530;28;20034;-62
2022/03/13 01:26:34;;;;;;;2.08;1.10;;;9.80;99.90;;;;;;4994958;28;20512;-62
2022/03/13 01:29:02;;;;;;;1.73;1.17;;;9.80;99.90;;;;;;4993519;28;20054;-62
2022/03/13 01:31:30;;;;;;;1.48;1.08;;;9.70;99.90;;;;;;4995078;28;20022;-63
2022/03/13 01:33:57;;;;;;;1.80;1.10;;;9.80;99.90;;;;;;4997639;28;20491;-63
2022/03/13 01:36:23;;;;;;;1.67;1.38;;;9.80;99.90;;;;;;4994914;28;20036;-63
2022/03/13 01:38:53;;;;;;;1.55;1.13;;;9.70;99.90;;;;;;4996288;28;20046;-62
2022/03/13 01:41:19;;;;;;;2.15;1.30;;;9.80;99.90;;;;;;4995424;28;20436;-63
2022/03/13 01:43:45;;;;;;;2.50;1.42;;;9.70;99.90;;;;;;4992973;28;20029;-62
2022/03/13 01:46:11;;;;;;;2.85;1.30;;;9.80;99.90;;;;;;4998102;28;20105;-63
2022/03/13 01:48:59;;;;;;;1.38;1.15;;;9.70;99.90;;;;;;4996145;28;20049;-63
2022/03/13 01:51:26;;;;;;;1.85;0.98;;;9.70;99.90;;;;;;4995961;28;20034;-62
2022/03/13 01:53:56;;;;;;;1.73;1.20;;;9.70;99.90;;;;;;4994827;28;20517;-62
2022/03/13 01:56:23;;;;;;;2.25;1.50;;;9.80;99.90;;;;;;4995771;28;20026;-62
2022/03/13 01:58:52;;;;;;;1.88;1.30;;;9.70;99.90;;;;;;4991380;28;20463;-63
2022/03/13 02:01:19;;;;;;;2.47;1.40;;;9.70;99.90;;;;;;5004711;28;20477;-62
2022/03/13 02:03:45;;;;;;;2.08;1.33;;;9.70;99.90;;;;;;4996195;28;20085;-62
2022/03/13 02:06:11;;;;;;;3.47;1.48;;;9.80;99.90;;;;;;4994401;28;20034;-62
2022/03/13 02:08:37;;;;;;;1.55;1.13;;;9.70;99.90;;;;;;4995668;28;20026;-62
2022/03/13 02:11:03;;;;;;;3.00;1.25;;;9.70;99.90;;;;;;4992924;28;20058;-62
2022/03/13 02:13:31;;;;;;;2.53;1.40;;;9.70;99.90;;;;;;4994643;28;20027;-63
2022/03/13 02:15:57;;;;;;;1.90;1.40;;;9.70;99.90;;;;;;4995131;28;20065;-63
2022/03/13 02:18:23;;;;;;;1.70;1.30;;;9.70;99.90;;;;;;4995376;28;20045;-62
2022/03/13 02:20:49;;;;;;;2.60;1.58;;;9.70;99.90;;;;;;4995523;28;20495;-62
2022/03/13 02:23:30;;;;;;;3.40;1.52;;;9.70;99.90;;;;;;4994239;28;20032;-63
2022/03/13 02:26:01;;;;;;;3.15;1.40;;;9.70;99.90;;;;;;4977397;28;20086;-62
2022/03/13 02:28:30;;;;;;;5.95;1.63;;;9.70;99.90;;;;;;4995145;28;20026;-62
2022/03/13 02:30:58;;;;;;;2.50;1.75;;;9.70;99.90;;;;;;4996506;28;20054;-63
2022/03/13 02:33:24;;;;;;;1.55;1.25;;;9.70;99.90;;;;;;4993654;28;20031;-62
2022/03/13 02:36:01;;;;;;;2.00;1.38;;;9.70;99.90;;;;;;4995034;28;20045;-62
2022/03/13 02:38:29;;;;;;;3.10;1.80;;;9.70;99.90;;;;;;4995174;28;20368;-63
2022/03/13 02:40:56;;;;;;;3.13;1.70;;;9.70;99.90;;;;;;4991569;28;20046;-62
2022/03/13 02:43:22;;;;;;;2.78;1.50;;;9.60;99.90;;;;;;4996035;28;20023;-62
2022/03/13 02:45:50;;;;;;;3.15;1.40;;;9.70;99.90;;;;;;4995330;28;20026;-62
2022/03/13 02:48:17;;;;;;;3.60;1.73;;;9.70;99.90;;;;;;4994996;28;20468;-62
2022/03/13 02:50:43;;;;;;;2.92;1.60;;;9.70;99.90;;;;;;4994847;28;20063;-62
2022/03/13 02:53:09;;;;;;;4.28;1.70;;;9.60;99.90;;;;;;4991473;28;20118;-62
2022/03/13 02:55:36;;;;;;;3.05;1.65;;;9.60;99.90;;;;;;4993262;28;20431;-63
2022/03/13 02:58:02;;;;;;;3.50;1.80;;;9.60;99.90;;;;;;4994394;28;20022;-62
2022/03/13 03:00:46;;;;;;;3.30;1.70;;;9.60;99.90;;;;;;4994524;28;20415;-63
2022/03/13 03:03:17;;;;;;;4.18;1.48;;;9.50;99.90;;;;;;4994770;28;20022;-62
2022/03/13 03:05:43;;;;;;;3.00;1.60;;;9.60;99.90;;;;;;4994726;28;20073;-62
2022/03/13 03:08:09;;;;;;;3.80;1.90;;;9.50;99.90;;;;;;4993039;28;20026;-63
2022/03/13 03:10:36;;;;;;;4.65;1.60;;;9.60;99.90;;;;;;4992802;28;20030;-63
2022/03/13 03:13:03;;;;;;;3.75;1.58;;;9.60;99.90;;;;;;4994685;28;20026;-63
2022/03/13 03:15:29;;;;;;;3.35;1.50;;;9.60;99.90;;;;;;4994587;28;20037;-63
2022/03/13 03:17:55;;;;;;;2.45;1.23;;;9.60;99.90;;;;;;4994621;28;20026;-63
2022/03/13 03:20:21;;;;;;;3.75;1.60;;;9.60;99.90;;;;;;4994164;28;20034;-63
2022/03/13 03:22:50;;;;;;;2.30;1.33;;;9.60;99.90;;;;;;4990282;28;20054;-63
2022/03/13 03:25:24;;;;;;;2.90;1.38;;;9.60;99.90;;;;;;4994698;28;20030;-63
2022/03/13 03:27:54;;;;;;;2.58;1.33;;;9.60;99.90;;;;;;4995031;28;20023;-62
2022/03/13 03:30:24;;;;;;;2.85;1.40;;;9.60;99.90;;;;;;4994977;28;20037;-63
2022/03/13 03:32:51;;;;;;;1.70;1.55;;;9.70;99.90;;;;;;4993025;28;20030;-63
2022/03/13 03:35:19;;;;;;;3.55;1.40;;;9.60;99.90;;;;;;4993241;28;20033;-63
2022/03/13 03:37:46;;;;;;;1.85;1.48;;;9.60;99.90;;;;;;4990963;28;20034;-63
2022/03/13 03:40:12;;;;;;;2.15;1.20;;;9.60;99.90;;;;;;4996286;28;20046;-62
2022/03/13 03:42:40;;;;;;;1.75;1.27;;;9.60;99.90;;;;;;4994259;28;20039;-62
2022/03/13 03:45:07;;;;;;;2.95;1.30;;;9.60;99.90;;;;;;4994232;28;20110;-62
2022/03/13 03:47:33;;;;;;;2.92;1.20;;;9.60;99.90;;;;;;4994216;28;20501;-62
2022/03/13 03:49:59;;;;;;;1.85;1.40;;;9.60;99.90;;;;;;4989501;28;20027;-63
2022/03/13 03:52:24;;;;;;;3.53;1.30;;;9.50;99.90;;;;;;4995041;28;20372;-63
2022/03/13 03:54:51;;;;;;;3.03;1.20;;;9.50;99.90;;;;;;4993858;28;20029;-63
2022/03/13 03:57:19;;;;;;;3.70;1.40;;;9.50;99.90;;;;;;4997896;28;20041;-63
2022/03/13 03:59:45;;;;;;;2.35;1.30;;;9.40;99.90;;;;;;4997643;28;20073;-63
2022/03/13 04:02:11;;;;;;;3.40;1.40;;;9.40;99.90;;;;;;4995114;28;20398;-63
2022/03/13 04:04:37;;;;;;;2.92;1.33;;;9.40;99.90;;;;;;4995788;28;20037;-63
2022/03/13 04:07:02;;;;;;;2.15;1.30;;;9.30;99.90;;;;;;4997852;28;20026;-63
2022/03/13 04:09:28;;;;;;;2.67;1.33;;;9.30;99.90;;;;;;4996322;28;20038;-62
2022/03/13 04:11:54;;;;;;;3.70;1.55;;;9.30;99.90;;;;;;4996449;28;20502;-63
2022/03/13 04:14:21;;;;;;;2.95;1.30;;;9.20;99.90;;;;;;4997616;28;20022;-63
2022/03/13 04:16:47;;;;;;;3.08;1.30;;;9.20;99.90;;;;;;4994008;28;20023;-63
2022/03/13 04:19:13;;;;;;;1.77;1.20;;;9.10;99.90;;;;;;4999740;28;20022;-63
2022/03/13 04:21:41;;;;;;;3.40;1.27;;;9.10;99.90;;;;;;4997603;28;20038;-63
2022/03/13 04:24:14;;;;;;;3.35;1.30;;;9.10;99.90;;;;;;4997319;28;20031;-63
2022/03/13 04:26:40;;;;;;;1.60;1.10;;;9.00;99.90;;;;;;4996218;28;20173;-63
2022/03/13 04:29:09;;;;;;;2.55;1.20;;;9.00;99.90;;;;;;4993819;28;20037;-63
2022/03/13 04:31:37;;;;;;;3.60;1.20;;;8.90;99.90;;;;;;4995731;28;20041;-63
2022/03/13 04:34:03;;;;;;;1.52;1.00;;;8.90;99.90;;;;;;4997370;28;20029;-62
2022/03/13 04:36:32;;;;;;;3.47;1.30;;;8.90;99.90;;;;;;4997363;28;20038;-63
2022/03/13 04:38:59;;;;;;;1.83;1.30;;;8.80;99.90;;;;;;4997204;28;20057;-63
2022/03/13 04:41:25;;;;;;;3.13;1.38;;;8.80;99.90;;;;;;4996099;28;20521;-63
2022/03/13 04:43:53;;;;;;;4.28;1.50;;;8.80;99.90;;;;;;4977789;28;20491;-63
2022/03/13 04:46:18;;;;;;;5.10;1.50;;;8.80;99.90;;;;;;5006097;28;20029;-63
2022/03/13 04:48:44;;;;;;;6.20;1.75;;;8.80;99.90;;;;;;4997684;28;20052;-63
2022/03/13 04:51:10;;;;;;;4.88;1.58;;;8.80;99.90;;;;;;4995779;28;20058;-63
2022/03/13 04:53:36;;;;;;;7.95;1.88;;;8.90;99.90;;;;;;4997153;28;20025;-63
2022/03/13 04:56:02;;;;;;;7.15;2.00;;;8.90;99.90;;;;;;4993825;28;20458;-63
2022/03/13 04:58:28;;;;;;;7.10;1.80;;;8.90;99.90;;;;;;4997034;28;20044;-63
2022/03/13 05:00:54;;;;;;;7.25;2.08;;;8.80;99.90;;;;;;4997863;28;20475;-63
2022/03/13 05:03:20;;;;;;;6.32;2.08;;;8.90;99.90;;;;;;4996773;28;20037;-63
2022/03/13 05:05:46;;;;;;;9.57;2.13;;;8.90;99.90;;;;;;4996682;28;20034;-62
2022/03/13 05:08:15;;;;;;;8.00;2.10;;;8.90;99.90;;;;;;4993320;28;20486;-63
2022/03/13 05:10:47;;;;;;;6.90;1.80;;;8.90;99.90;;;;;;4993842;28;20092;-63
2022/03/13 05:13:14;;;;;;;7.40;1.98;;;9.00;99.90;;;;;;4999169;28;20482;-62
2022/03/13 05:15:42;;;;;;;6.10;1.80;;;8.90;99.90;;;;;;4996686;28;20034;-63
2022/03/13 05:18:08;;;;;;;7.18;2.00;;;8.80;99.90;;;;;;4996719;28;20038;-63
2022/03/13 05:20:34;;;;;;;9.93;2.13;;;8.80;99.90;;;;;;4995485;28;20555;-63
2022/03/13 05:23:04;;;;;;;10.60;2.30;;;8.70;99.90;;;;;;4992904;28;20084;-63
2022/03/13 05:25:31;;;;;;;9.23;2.33;;;8.80;99.90;;;;;;4996308;28;20027;-63
2022/03/13 05:27:57;;;;;;;8.63;1.77;;;8.80;99.90;;;;;;4997668;28;20034;-63
2022/03/13 05:30:24;;;;;;;10.75;2.35;;;8.70;99.90;;;;;;4995134;28;20030;-62
2022/03/13 05:32:50;;;;;;;10.10;2.70;;;8.70;99.90;;;;;;4996362;28;20068;-63
2022/03/13 05:35:17;;;;;;;9.35;2.33;;;8.70;99.90;;;;;;4995037;28;20029;-63
2022/03/13 05:37:44;;;;;;;9.02;2.20;;;8.80;99.90;;;;;;4993210;28;20049;-63
2022/03/13 05:40:15;;;;;;;9.18;2.28;;;8.70;99.90;;;;;;4998053;28;20470;-63
2022/03/13 05:42:44;;;;;;;7.53;2.03;;;8.70;99.90;;;;;;4996144;28;20045;-63
2022/03/13 05:45:12;;;;;;;7.05;2.20;;;8.70;99.90;;;;;;4996051;28;20385;-63
2022/03/13 05:47:46;;;;;;;10.68;2.28;;;8.70;99.90;;;;;;4994585;28;20032;-63
2022/03/13 05:50:13;;;;;;;11.88;2.60;;;8.70;99.90;;;;;;4994366;28;20120;-63
2022/03/13 05:52:40;;;;;;;10.57;2.67;;;8.70;99.90;;;;;;4993023;28;20447;-63
2022/03/13 05:55:06;;;;;;;9.32;2.72;;;8.60;99.90;;;;;;4997961;28;20081;-63
2022/03/13 05:57:31;;;;;;;11.68;2.55;;;8.60;99.90;;;;;;4996315;28;20054;-63
2022/03/13 05:59:57;;;;;;;9.15;2.30;;;8.60;99.90;;;;;;4994404;28;20482;-62
2022/03/13 06:02:23;;;;;;;7.32;2.33;;;8.60;99.90;;;;;;4994201;28;20028;-63
2022/03/13 06:04:51;;;;;;;7.55;2.30;;;8.70;99.90;;;;;;4991960;28;20041;-63
2022/03/13 06:07:17;;;;;;;7.35;2.30;;;8.60;99.90;;;;;;4997617;28;20395;-63
2022/03/13 06:09:43;;;;;;;9.63;2.30;;;8.60;99.90;;;;;;4994059;28;20034;-63
2022/03/13 06:12:09;;;;;;;9.52;2.22;;;8.60;99.90;;;;;;4994747;28;20411;-62
2022/03/13 06:14:34;;;;;;;10.45;2.40;;;8.70;99.90;;;;;;4995579;28;20026;-63
2022/03/13 06:17:00;;;;;;;8.68;2.28;;;8.70;99.90;;;;;;4992216;28;20026;-63
2022/03/13 06:19:26;;;;;;;10.10;2.30;;;8.60;99.90;;;;;;4994421;28;20066;-62
2022/03/13 06:21:52;;;;;;;6.47;2.15;;;8.60;99.90;;;;;;4994545;28;20093;-62
2022/03/13 06:24:18;;;;;;;5.40;1.55;;;8.60;99.90;;;;;;4995522;28;20034;-63
2022/03/13 06:26:44;;;;;;;8.73;1.70;;;8.50;99.90;;;;;;4993731;28;20045;-63
2022/03/13 06:29:13;;;;;;;7.50;1.80;;;8.50;99.90;;;;;;4993267;28;20053;-62
2022/03/13 06:31:39;;;;;;;7.82;1.83;;;8.40;99.90;;;;;;4992895;28;20031;-63
2022/03/13 06:34:05;;;;;;;11.32;2.00;;;8.40;99.90;;;;;;4997213;28;20121;-63
2022/03/13 06:36:31;;;;;;;8.27;1.85;;;8.30;99.90;;;;;;4995342;28;20105;-63
2022/03/13 06:38:57;;;;;;;6.45;1.90;;;8.30;99.90;;;;;;4993732;28;20031;-62
2022/03/13 06:41:22;;;;;;;13.15;1.90;;;8.40;99.90;;;;;;4994595;28;20050;-63
2022/03/13 06:43:48;;;;;;;8.60;1.95;;;8.40;99.90;;;;;;4991670;28;20035;-62
2022/03/13 06:46:14;;;;;;;8.13;1.58;;;8.30;99.90;;;;;;4997074;28;20049;-62
2022/03/13 06:48:42;;;;;;;7.63;1.83;;;8.20;99.90;;;;;;4993263;28;20476;-62
2022/03/13 06:51:07;;;;;;;8.90;1.80;;;8.10;99.90;;;;;;4993859;28;20027;-62
2022/03/13 06:53:35;;;;;;;7.30;1.50;;;8.00;99.90;;;;;;4995326;28;20030;-62
2022/03/13 06:56:02;;;;;;;9.60;1.65;;;8.00;99.90;;;;;;4991551;28;20018;-62
2022/03/13 06:58:28;;;;;;;5.43;1.60;;;8.00;99.90;;;;;;4995004;28;20045;-62
2022/03/13 07:00:54;;;;;;;9.15;1.63;;;8.00;99.90;;;;;;4996029;28;20033;-62
2022/03/13 07:03:19;;;;;;;7.63;1.88;;;8.00;99.90;;;;;;4994373;28;20034;-62
2022/03/13 07:05:46;;;;;;;9.75;1.90;;;8.00;99.90;;;;;;4993299;28;20060;-62
2022/03/13 07:08:13;;;;;;;7.20;1.80;;;8.00;99.90;;;;;;4992897;28;20046;-62
2022/03/13 07:10:39;;;;;;;7.07;1.80;;;7.90;99.90;;;;;;4991110;28;20107;-62
2022/03/13 07:13:05;;;;;;;7.78;1.90;;;8.00;99.90;;;;;;4996873;28;20022;-62
2022/03/13 07:15:31;;;;;;;8.40;1.80;;;7.80;99.90;;;;;;4994618;28;20049;-62
2022/03/13 07:17:58;;;;;;;6.57;1.90;;;7.80;99.90;;;;;;4993397;28;20503;-62
2022/03/13 07:20:24;;;;;;;8.85;2.40;;;7.90;99.90;;;;;;4994396;28;20045;-62
2022/03/13 07:22:50;;;;;;;8.38;2.05;;;7.80;99.90;;;;;;4990618;28;20072;-62
2022/03/13 07:25:16;;;;;;;7.78;1.88;;;7.90;99.90;;;;;;4996605;28;20483;-62
2022/03/13 07:27:43;;;;;;;7.22;1.50;;;7.80;99.90;;;;;;4993640;28;20113;-62
2022/03/13 07:30:14;;;;;;;9.00;1.50;;;7.70;99.90;;;;;;4995418;28;20034;-62
2022/03/13 07:32:41;;;;;;;5.93;1.48;;;7.80;99.90;;;;;;4998246;28;20022;-62
2022/03/13 07:35:11;;;;;;;7.10;1.77;;;7.80;99.90;;;;;;4994859;28;20023;-62
2022/03/13 07:37:37;;;;;;;10.90;2.38;;;7.70;99.90;;;;;;4997064;28;20027;-62
2022/03/13 07:40:04;;;;;;;9.00;2.50;;;7.70;99.90;;;;;;5000263;28;20065;-62
2022/03/13 07:42:30;;;;;;;7.53;2.70;;;7.70;99.90;;;;;;4998343;28;20446;-63
2022/03/13 07:44:56;;;;;;;9.88;2.88;;;7.70;99.90;;;;;;4996926;28;20035;-62
2022/03/13 07:47:22;;;;;;;11.52;2.40;;;7.80;99.90;;;;;;4996188;28;20026;-62
2022/03/13 07:49:47;;;;;;;9.82;1.92;;;7.80;99.90;;;;;;4993246;28;20027;-62
2022/03/13 07:52:13;;;;;;;7.93;2.40;;;7.80;99.90;;;;;;5000316;28;20109;-62
2022/03/13 07:54:39;;;;;;;9.05;1.90;;;7.80;99.90;;;;;;4998036;28;20384;-63
2022/03/13 07:57:05;;;;;;;5.97;1.52;;;7.80;99.90;;;;;;4996743;28;20037;-62
2022/03/13 07:59:31;;;;;;;7.88;2.10;;;7.90;99.90;;;;;;4998217;28;20395;-62
2022/03/13 08:01:58;;;;;;;6.53;1.90;;;7.80;99.90;;;;;;4992939;28;20027;-62
2022/03/13 08:04:24;;;;;;;6.43;1.92;;;7.80;99.90;;;;;;4999323;28;20473;-62
2022/03/13 08:06:50;;;;;;;7.13;2.40;;;7.80;99.90;;;;;;4998624;28;20033;-61
2022/03/13 08:09:16;;;;;;;12.68;5.90;;;7.80;99.90;;;;;;4998022;28;20031;-63
2022/03/13 08:11:42;;;;;;;7.10;3.70;;;7.80;99.90;;;;;;4997982;28;20475;-62
2022/03/13 08:14:08;;;;;;;8.63;2.80;;;7.80;99.90;;;;;;4995608;28;20549;-62
2022/03/13 08:16:35;;;;;;;7.68;3.20;;;7.90;99.90;;;;;;4996322;28;20030;-62
2022/03/13 08:19:01;;;;;;;7.00;2.90;;;7.90;99.90;;;;;;4999315;28;20042;-62
2022/03/13 08:21:27;;;;;;;4.93;1.70;;;8.00;99.90;;;;;;4997857;28;20038;-62
2022/03/13 08:23:54;;;;;;;5.25;1.67;;;8.00;99.90;;;;;;4996512;28;20110;-62
2022/03/13 08:26:20;;;;;;;5.38;1.70;;;8.00;99.90;;;;;;4996876;28;20040;-62
2022/03/13 08:28:46;;;;;;;5.30;1.33;;;8.10;99.90;;;;;;4992822;28;20129;-62
2022/03/13 08:31:12;;;;;;;4.70;1.42;;;8.00;99.90;;;;;;4999322;28;20025;-63
2022/03/13 08:33:38;;;;;;;7.60;2.00;;;8.10;99.90;;;;;;4997359;28;20026;-62
2022/03/13 08:36:04;;;;;;;7.00;1.80;;;8.10;99.90;;;;;;4996387;28;20026;-62
2022/03/13 08:38:30;;;;;;;6.80;1.83;;;8.10;99.90;;;;;;4997210;28;20036;-62
2022/03/13 08:40:56;;;;;;;6.70;1.80;;;8.10;99.90;;;;;;4992924;28;20043;-62
2022/03/13 08:43:22;;;;;;;4.75;1.55;;;8.10;99.90;;;;;;4999178;28;20049;-62
2022/03/13 08:45:48;;;;;;;7.35;1.80;;;8.20;99.90;;;;;;4996369;28;20046;-63
2022/03/13 08:48:14;;;;;;;6.68;1.63;;;8.10;99.90;;;;;;4997300;28;20054;-63
2022/03/13 08:50:40;;;;;;;7.43;1.65;;;8.10;99.90;;;;;;4997373;28;20084;-63
2022/03/13 08:53:07;;;;;;;7.68;1.98;;;8.20;99.90;;;;;;4994853;28;20503;-63
2022/03/13 08:55:33;;;;;;;6.97;1.80;;;8.20;99.90;;;;;;4996252;28;20100;-63
2022/03/13 08:57:58;;;;;;;5.10;1.75;;;8.30;99.90;;;;;;4998769;28;20080;-63
2022/03/13 09:00:26;;;;;;;8.07;1.70;;;8.40;99.90;;;;;;4996736;28;20530;-63
2022/03/13 09:02:53;;;;;;;6.60;1.98;;;8.50;99.90;;;;;;4995665;28;20387;-63
2022/03/13 09:05:20;;;;;;;6.85;1.70;;;8.60;99.90;;;;;;4996114;28;20033;-63
2022/03/13 09:07:46;;;;;;;6.70;1.95;;;8.70;99.90;;;;;;4993566;28;20034;-63
2022/03/13 09:10:12;;;;;;;4.55;1.73;;;8.80;99.90;;;;;;4999402;28;20539;-62
2022/03/13 09:12:38;;;;;;;4.75;1.40;;;8.90;99.90;;;;;;4996643;28;20037;-63
2022/03/13 09:15:06;;;;;;;6.35;1.67;;;8.90;99.90;;;;;;4995484;28;20035;-63
2022/03/13 09:17:32;;;;;;;7.00;1.80;;;9.00;99.90;;;;;;4996684;28;20108;-62
2022/03/13 09:19:58;;;;;;;3.15;1.50;;;9.00;99.90;;;;;;4993561;28;20046;-62
2022/03/13 09:22:28;;;;;;;6.97;2.38;;;9.10;99.90;;;;;;4997658;28;20022;-62
2022/03/13 09:24:57;;;;;;;6.25;2.47;;;9.20;99.90;;;;;;4996239;28;20058;-62
2022/03/13 09:27:24;;;;;;;8.52;2.63;;;9.20;99.90;;;;;;4996340;28;20049;-62
2022/03/13 09:29:50;;;;;;;6.88;1.98;;;9.10;99.90;;;;;;4996770;28;20019;-63
2022/03/13 09:32:16;;;;;;;5.30;1.80;;;9.20;99.90;;;;;;4995579;28;20033;-62
2022/03/13 09:34:42;;;;;;;7.45;2.28;;;9.30;99.90;;;;;;4993432;28;20050;-62
2022/03/13 09:37:07;;;;;;;6.93;2.40;;;9.40;99.90;;;;;;4998577;28;20027;-63
2022/03/13 09:39:34;;;;;;;6.07;2.38;;;9.50;99.90;;;;;;4996684;28;20045;-63
2022/03/13 09:42:00;;;;;;;8.60;2.92;;;9.70;99.90;;;;;;4994001;28;20058;-62
2022/03/13 09:44:26;;;;;;;7.18;2.80;;;9.70;99.90;;;;;;4996659;28;20490;-62
2022/03/13 09:46:52;;;;;;;6.65;2.88;;;9.70;99.90;;;;;;4976753;28;20435;-63
2022/03/13 09:49:20;;;;;;;8.38;2.38;;;9.70;99.90;;;;;;4998253;28;20565;-62
2022/03/13 09:51:47;;;;;;;7.22;1.90;;;9.70;99.90;;;;;;4996044;28;20035;-63
2022/03/13 09:54:13;;;;;;;6.65;1.90;;;9.80;99.90;;;;;;4994297;28;20035;-62
2022/03/13 09:56:39;;;;;;;7.78;2.20;;;9.80;99.90;;;;;;4995795;28;20368;-62
2022/03/13 09:59:04;;;;;;;9.30;2.60;;;9.90;99.90;;;;;;4993181;28;20028;-62
2022/03/13 10:01:30;;;;;;;6.95;2.10;;;9.90;99.90;;;;;;4995457;28;20030;-62
2022/03/13 10:03:56;;;;;;;10.65;3.70;;;10.00;99.90;;;;;;4995857;28;20367;-63
2022/03/13 10:06:22;;;;;;;11.55;4.88;;;10.10;99.90;;;;;;4995900;28;20510;-62
2022/03/13 10:08:48;;;;;;;9.13;3.60;;;10.30;99.90;;;;;;4996235;28;20030;-63
2022/03/13 10:11:14;;;;;;;9.18;3.20;;;10.50;99.90;;;;;;4993904;28;20176;-63
2022/03/13 10:13:46;;;;;;;8.65;2.40;;;10.70;99.90;;;;;;4993005;28;20030;-62
2022/03/13 10:16:38;;;;;;;6.82;1.95;;;11.00;99.90;;;;;;4997837;28;20029;-63
2022/03/13 10:19:18;;;;;;;9.77;2.33;;;11.20;99.90;;;;;;4995643;28;20034;-63
2022/03/13 10:22:17;;;;;;;6.47;2.00;;;11.20;99.90;;;;;;4994308;28;20041;-63
2022/03/13 10:24:46;;;;;;;7.25;1.90;;;11.40;99.90;;;;;;4951499;29;20050;-62
2022/03/13 10:27:20;;;;;;;6.20;2.30;;;11.60;99.90;;;;;;4945770;29;20044;-63
2022/03/13 10:29:47;;;;;;;5.05;1.50;;;11.90;99.90;;;;;;4940786;29;20039;-63
2022/03/13 10:32:14;;;;;;;5.45;1.90;;;12.30;99.90;;;;;;4939269;29;20106;-63
2022/03/13 10:34:41;;;;;;;7.53;1.85;;;12.60;99.90;;;;;;4951767;29;20527;-63
2022/03/13 10:37:08;;;;;;;4.43;1.40;;;12.60;99.90;;;;;;4938977;29;20051;-63
2022/03/13 10:39:35;;;;;;;7.78;1.83;;;12.70;99.90;;;;;;4941108;29;20043;-63
2022/03/13 10:42:03;;;;;;;6.38;1.85;;;12.80;99.90;;;;;;4945226;29;20059;-63
2022/03/13 10:44:34;;;;;;;3.38;1.67;;;13.00;99.90;;;;;;4951062;29;20042;-63
2022/03/13 10:47:05;;;;;;;9.40;2.22;;;12.90;99.90;;;;;;4937254;29;20110;-63
2022/03/13 10:49:52;;;;;;;6.00;2.10;;;12.90;99.90;;;;;;4936157;29;20212;-63
2022/03/13 10:52:29;;;;;;;7.47;1.95;;;13.30;99.90;;;;;;4952248;29;20039;-63
2022/03/13 10:55:21;;;;;;;9.98;1.85;;;13.10;99.90;;;;;;4939978;29;20040;-63
2022/03/13 10:57:52;;;;;;;8.48;2.05;;;13.60;99.90;;;;;;4940062;29;20078;-63
2022/03/13 11:00:20;;;;;;;6.93;1.73;;;13.70;99.90;;;;;;4971997;28;20057;-63
2022/03/13 11:02:46;;;;;;;6.32;1.77;;;14.30;99.90;;;;;;5003972;28;20026;-63
2022/03/13 11:05:11;;;;;;;7.80;1.80;;;14.60;99.90;;;;;;4992750;28;20030;-63
2022/03/13 11:07:37;;;;;;;8.15;2.08;;;14.40;99.90;;;;;;4993012;28;20022;-64
2022/03/13 11:10:06;;;;;;;7.15;2.00;;;14.70;99.90;;;;;;4996880;28;20491;-63
2022/03/13 11:12:32;;;;;;;7.55;2.13;;;15.40;99.90;;;;;;4993373;28;20031;-63
2022/03/13 11:15:00;;;;;;;8.73;2.22;;;15.40;99.90;;;;;;4994729;28;20038;-63
2022/03/13 11:17:30;;;;;;;13.48;2.40;;;15.20;99.90;;;;;;4994946;28;20470;-63
2022/03/13 11:19:58;;;;;;;13.68;3.15;;;15.40;99.90;;;;;;4974230;28;20046;-63
2022/03/13 11:22:26;;;;;;;11.57;2.70;;;15.00;99.90;;;;;;4996473;28;20018;-63
2022/03/13 11:24:58;;;;;;;12.25;3.10;;;14.80;99.90;;;;;;4994981;28;20487;-64
2022/03/13 11:27:29;;;;;;;11.38;2.60;;;14.60;99.90;;;;;;4994752;28;20034;-64
2022/03/13 11:29:55;;;;;;;13.88;2.95;;;14.60;99.90;;;;;;4994813;28;20080;-64
2022/03/13 11:32:42;;;;;;;11.60;2.80;;;14.30;99.90;;;;;;4994475;28;20030;-63
2022/03/13 11:35:11;;;;;;;11.95;2.88;;;14.60;99.90;;;;;;4979155;28;20031;-63
2022/03/13 11:37:38;;;;;;;8.52;2.85;;;15.00;99.90;;;;;;4993044;28;20138;-64
2022/03/13 11:40:05;;;;;;;11.05;2.53;;;15.90;99.90;;;;;;4994323;28;20133;-63
2022/03/13 11:43:13;;;;;;;8.43;2.50;;;16.90;99.90;;;;;;4994355;28;20110;-63
2022/03/13 11:45:41;;;;;;;12.35;2.80;;;17.40;99.90;;;;;;4951054;29;20047;-64
2022/03/13 11:48:18;;;;;;;11.20;3.35;;;17.80;99.90;;;;;;4945542;29;20047;-64
2022/03/13 11:51:03;;;;;;;14.40;3.60;;;17.10;99.90;;;;;;4942113;29;20067;-64
2022/03/13 11:53:44;;;;;;;15.20;3.88;;;16.40;99.90;;;;;;4950056;29;20456;-63
2022/03/13 11:56:24;;;;;;;15.70;3.72;;;15.90;99.90;;;;;;4937799;29;20524;-64
2022/03/13 11:58:52;;;;;;;12.48;3.20;;;15.60;99.90;;;;;;4935273;29;20071;-64
2022/03/13 12:01:37;;;;;;;15.85;3.88;;;15.20;99.90;;;;;;4951331;29;20135;-64
2022/03/13 12:04:03;;;;;;;12.25;3.30;;;15.00;99.90;;;;;;4951002;29;20035;-64
2022/03/13 12:06:48;;;;;;;16.50;3.50;;;14.40;99.90;;;;;;4942566;29;20042;-64
2022/03/13 12:09:26;;;;;;;15.90;3.63;;;14.60;99.90;;;;;;4939782;29;20126;-64
2022/03/13 12:12:12;;;;;;;13.07;3.20;;;15.00;99.90;;;;;;4939790;29;20071;-64
2022/03/13 12:14:56;;;;;;;15.55;3.80;;;14.80;99.90;;;;;;4939754;29;20182;-63
2022/03/13 12:17:25;;;;;;;12.98;3.30;;;15.30;99.90;;;;;;4941748;29;20038;-64
2022/03/13 12:20:02;;;;;;;13.30;3.40;;;15.40;99.90;;;;;;4938780;29;20040;-64
2022/03/13 12:22:31;;;;;;;13.15;3.10;;;15.10;99.90;;;;;;5007303;28;20075;-64
2022/03/13 12:25:00;;;;;;;18.52;3.63;;;14.90;99.90;;;;;;4999215;28;20113;-64
2022/03/13 12:27:26;;;;;;;18.40;3.80;;;15.00;99.90;;;;;;4997756;28;20484;-64
2022/03/13 12:29:58;;;;;;;14.15;3.63;;;15.00;99.90;;;;;;4996335;28;20026;-64
2022/03/13 12:32:33;;;;;;;13.43;3.85;;;14.80;99.90;;;;;;4997603;28;20390;-64
2022/03/13 12:35:00;;;;;;;13.57;3.88;;;15.00;99.90;;;;;;4979776;28;20523;-64
2022/03/13 12:37:27;;;;;;;18.38;4.22;;;14.60;99.90;;;;;;4998295;28;20073;-64
2022/03/13 12:39:57;;;;;;;13.70;3.38;;;15.00;99.90;;;;;;4996436;28;20085;-63
2022/03/13 12:42:26;;;;;;;15.27;3.85;;;15.60;99.90;;;;;;4997554;28;20442;-63
2022/03/13 12:45:07;;;;;;;17.92;4.10;;;15.90;99.90;;;;;;4997635;28;20625;-64
2022/03/13 12:47:40;;;;;;;16.48;4.80;;;16.10;99.90;;;;;;4997455;28;20037;-64
2022/03/13 12:50:09;;;;;;;22.10;4.33;;;15.80;99.90;;;;;;4994514;28;20402;-63
2022/03/13 12:52:36;;;;;;;20.77;4.95;;;15.50;99.90;;;;;;4996284;28;20030;-64
2022/03/13 12:55:04;;;;;;;15.77;4.32;;;15.90;99.90;;;;;;4999105;28;20028;-64
2022/03/13 12:57:30;;;;;;;17.70;3.63;;;15.60;99.90;;;;;;4995827;28;20038;-64
2022/03/13 12:59:56;;;;;;;17.92;4.00;;;14.90;99.90;;;;;;4997165;28;20049;-65